createdAt,value
2018-07-27T00:00:54.712Z,16.80
2018-07-27T00:03:24.087Z,16.13
2018-07-27T00:05:53.612Z,16.67
2018-07-27T00:08:23.048Z,16.43
2018-07-27T00:10:52.449Z,16.67
2018-07-27T00:13:22.086Z,17.30
2018-07-27T00:15:51.670Z,15.63
2018-07-27T00:18:21.258Z,15.53
2018-07-27T00:20:50.791Z,15.87
2018-07-27T00:23:20.356Z,15.57
2018-07-27T00:25:49.844Z,15.80
2018-07-27T00:28:19.300Z,15.70
2018-07-27T00:30:48.796Z,14.63
2018-07-27T00:33:18.522Z,15.40
2018-07-27T00:35:48.044Z,14.60
2018-07-27T00:38:17.456Z,15.00
2018-07-27T00:40:47.010Z,15.40
2018-07-27T00:43:16.328Z,16.63
2018-07-27T00:45:45.758Z,17.17
2018-07-27T00:48:15.068Z,15.47
2018-07-27T00:50:44.400Z,15.97
2018-07-27T00:53:13.972Z,13.90
2018-07-27T00:55:43.400Z,14.00
2018-07-27T00:58:12.828Z,13.70
2018-07-27T01:00:42.182Z,13.93
2018-07-27T01:03:11.435Z,13.97
2018-07-27T01:05:40.726Z,13.83
2018-07-27T01:08:09.989Z,14.93
2018-07-27T01:10:39.193Z,13.87
2018-07-27T01:13:08.738Z,12.87
2018-07-27T01:15:37.985Z,13.10
2018-07-27T01:18:07.609Z,15.23
2018-07-27T01:20:37.212Z,15.90
2018-07-27T01:23:06.646Z,14.67
2018-07-27T01:25:36.121Z,14.60
2018-07-27T01:28:05.820Z,13.57
2018-07-27T01:30:35.187Z,12.87
2018-07-27T01:33:04.728Z,13.67
2018-07-27T01:35:34.173Z,14.27
2018-07-27T01:38:03.573Z,13.87
2018-07-27T01:40:33.085Z,13.37
2018-07-27T01:43:02.447Z,14.97
2018-07-27T01:45:31.988Z,15.67
2018-07-27T01:48:01.415Z,14.23
2018-07-27T01:50:30.830Z,13.90
2018-07-27T01:53:00.120Z,16.07
2018-07-27T01:55:29.636Z,14.93
2018-07-27T01:57:59.122Z,16.17
2018-07-27T02:00:28.764Z,14.63
2018-07-27T02:02:58.168Z,16.93
2018-07-27T02:05:27.502Z,16.97
2018-07-27T02:07:56.970Z,18.10
2018-07-27T02:10:26.584Z,17.95
2018-07-27T02:12:56.187Z,18.33
2018-07-27T02:15:25.608Z,16.73
2018-07-27T02:17:54.992Z,17.77
2018-07-27T02:20:24.412Z,18.13
2018-07-27T02:22:53.866Z,19.80
2018-07-27T02:25:23.353Z,19.80
2018-07-27T02:27:52.872Z,21.03
2018-07-27T02:30:22.188Z,22.05
2018-07-27T02:32:51.624Z,20.33
2018-07-27T02:35:21.056Z,22.93
2018-07-27T02:37:50.482Z,23.47
2018-07-27T02:40:20.140Z,22.83
2018-07-27T02:42:49.546Z,24.03
2018-07-27T02:45:18.887Z,22.93
2018-07-27T02:47:49.671Z,20.47
2018-07-27T02:50:20.100Z,19.13
2018-07-27T02:52:49.617Z,22.17
2018-07-27T02:55:18.906Z,22.77
2018-07-27T02:57:48.206Z,23.30
2018-07-27T03:00:17.508Z,23.10
2018-07-27T03:02:46.833Z,21.35
2018-07-27T03:05:16.266Z,25.47
2018-07-27T03:07:45.804Z,26.10
2018-07-27T03:10:15.701Z,23.60
2018-07-27T03:12:45.205Z,24.83
2018-07-27T03:15:14.851Z,25.17
2018-07-27T03:17:44.370Z,24.30
2018-07-27T03:20:13.813Z,23.33
2018-07-27T03:22:43.202Z,24.60
2018-07-27T03:25:12.683Z,25.27
2018-07-27T03:27:42.229Z,25.17
2018-07-27T03:30:11.674Z,25.77
2018-07-27T03:32:41.015Z,26.83
2018-07-27T03:35:10.507Z,24.97
2018-07-27T03:37:40.025Z,24.43
2018-07-27T03:40:09.541Z,24.53
2018-07-27T03:42:39.063Z,25.90
2018-07-27T03:45:08.481Z,26.90
2018-07-27T03:47:37.803Z,24.87
2018-07-27T03:50:07.309Z,25.33
2018-07-27T03:52:40.383Z,26.00
2018-07-27T03:55:14.325Z,25.70
2018-07-27T03:57:47.285Z,25.25
2018-07-27T04:00:17.236Z,26.60
2018-07-27T04:02:46.793Z,23.57
2018-07-27T04:05:16.260Z,26.90
2018-07-27T04:07:45.729Z,25.73
2018-07-27T04:10:15.365Z,23.70
2018-07-27T04:12:44.800Z,23.83
2018-07-27T04:15:14.202Z,21.77
2018-07-27T04:18:13.903Z,21.03
2018-07-27T04:20:43.360Z,24.00
2018-07-27T04:23:12.794Z,24.00
2018-07-27T04:25:42.092Z,22.50
2018-07-27T04:28:11.795Z,24.10
2018-07-27T04:30:41.580Z,23.30
2018-07-27T04:33:10.967Z,23.03
2018-07-27T04:35:40.432Z,21.83
2018-07-27T04:38:10.001Z,20.53
2018-07-27T04:40:39.732Z,20.90
2018-07-27T04:43:09.287Z,20.77
2018-07-27T04:45:38.810Z,19.73
2018-07-27T04:48:08.503Z,20.70
2018-07-27T04:50:38.140Z,19.50
2018-07-27T04:53:07.687Z,18.57
2018-07-27T04:55:37.172Z,16.83
2018-07-27T04:58:06.743Z,15.80
2018-07-27T05:00:37.762Z,14.80
2018-07-27T05:03:07.174Z,13.93
2018-07-27T05:05:36.623Z,16.20
2018-07-27T05:08:06.306Z,16.40
2018-07-27T05:10:40.859Z,18.80
2018-07-27T05:13:10.270Z,17.77
2018-07-27T05:15:40.816Z,16.83
2018-07-27T05:18:10.346Z,16.53
2018-07-27T05:20:39.878Z,15.43
2018-07-27T05:23:09.345Z,15.33
2018-07-27T05:25:39.008Z,15.37
2018-07-27T05:28:09.296Z,14.53
2018-07-27T05:30:39.206Z,13.30
2018-07-27T05:33:08.653Z,12.03
2018-07-27T05:35:38.202Z,11.23
2018-07-27T05:38:11.250Z,11.63
2018-07-27T05:40:40.826Z,10.63
2018-07-27T05:43:10.355Z,11.03
2018-07-27T05:45:39.803Z,9.97
2018-07-27T05:48:13.011Z,9.50
2018-07-27T05:50:43.112Z,10.30
2018-07-27T05:53:12.714Z,8.93
2018-07-27T05:55:46.481Z,10.90
2018-07-27T05:58:17.723Z,9.83
2018-07-27T06:00:47.367Z,10.13
2018-07-27T06:03:16.913Z,10.27
2018-07-27T06:05:46.582Z,10.63
2018-07-27T06:08:16.158Z,10.20
2018-07-27T06:10:45.766Z,11.37
2018-07-27T06:13:15.382Z,11.77
2018-07-27T06:15:45.250Z,12.57
2018-07-27T06:18:14.881Z,12.10
2018-07-27T06:20:44.535Z,11.80
2018-07-27T06:23:14.149Z,10.93
2018-07-27T06:25:43.678Z,10.83
2018-07-27T06:28:13.291Z,11.03
2018-07-27T06:30:42.823Z,11.40
2018-07-27T06:33:12.449Z,12.00
2018-07-27T06:35:43.950Z,11.93
2018-07-27T06:38:13.815Z,11.50
2018-07-27T06:40:43.852Z,10.03
2018-07-27T06:43:13.344Z,9.87
2018-07-27T06:45:42.979Z,10.03
2018-07-27T06:48:19.750Z,9.77
2018-07-27T06:50:51.070Z,7.60
2018-07-27T06:53:20.776Z,8.83
2018-07-27T06:55:50.296Z,8.43
2018-07-27T06:58:19.888Z,8.00
2018-07-27T07:00:49.434Z,7.60
2018-07-27T07:03:19.110Z,7.00
2018-07-27T07:05:49.181Z,7.67
2018-07-27T07:08:18.660Z,7.77
2018-07-27T07:10:48.165Z,8.47
2018-07-27T07:13:17.661Z,8.45
2018-07-27T07:15:47.354Z,7.85
2018-07-27T07:18:16.707Z,7.83
2018-07-27T07:20:46.679Z,7.67
2018-07-27T07:23:16.225Z,7.58
2018-07-27T07:25:46.051Z,7.05
2018-07-27T07:28:15.352Z,6.25
2018-07-27T07:30:44.846Z,6.33
2018-07-27T07:33:14.443Z,6.30
2018-07-27T07:35:43.909Z,5.55
2018-07-27T07:38:13.722Z,5.42
2018-07-27T07:40:43.254Z,5.25
2018-07-27T07:43:12.964Z,5.50
2018-07-27T07:45:42.519Z,5.40
2018-07-27T07:48:12.247Z,5.30
2018-07-27T07:50:41.780Z,5.10
2018-07-27T07:53:11.227Z,5.72
2018-07-27T07:55:41.111Z,4.80
2018-07-27T07:58:10.692Z,4.50
2018-07-27T08:00:40.193Z,5.00
2018-07-27T08:03:09.801Z,4.65
2018-07-27T08:05:39.139Z,4.37
2018-07-27T08:08:08.569Z,4.90
2018-07-27T08:10:38.115Z,4.20
2018-07-27T08:13:07.694Z,4.53
2018-07-27T08:15:37.268Z,4.17
2018-07-27T08:18:06.951Z,4.08
2018-07-27T08:20:36.365Z,4.30
2018-07-27T08:23:05.941Z,3.65
2018-07-27T08:25:46.781Z,3.95
2018-07-27T08:28:27.303Z,3.72
2018-07-27T08:30:57.039Z,3.83
2018-07-27T08:33:26.503Z,3.33
2018-07-27T08:35:56.011Z,3.22
2018-07-27T08:38:25.402Z,3.10
2018-07-27T08:40:54.827Z,3.25
2018-07-27T08:43:24.234Z,2.60
2018-07-27T08:45:54.014Z,2.52
2018-07-27T08:48:23.459Z,2.98
2018-07-27T08:50:53.403Z,2.62
2018-07-27T08:53:22.859Z,2.65
2018-07-27T08:55:52.215Z,2.60
2018-07-27T08:58:21.532Z,2.90
2018-07-27T09:00:56.048Z,2.90
2018-07-27T09:03:25.646Z,2.90
2018-07-27T09:05:55.094Z,2.98
2018-07-27T09:08:24.679Z,2.85
2018-07-27T09:10:54.097Z,2.75
2018-07-27T09:13:23.434Z,2.90
2018-07-27T09:15:52.986Z,2.65
2018-07-27T09:18:22.555Z,2.90
2018-07-27T09:20:52.036Z,2.60
2018-07-27T09:23:21.598Z,2.50
2018-07-27T09:25:51.002Z,2.80
2018-07-27T09:28:20.359Z,2.60
2018-07-27T09:30:49.987Z,2.90
2018-07-27T09:33:19.684Z,2.33
2018-07-27T09:35:49.435Z,2.70
2018-07-27T09:38:18.864Z,2.58
2018-07-27T09:40:48.789Z,2.60
2018-07-27T09:43:18.937Z,2.55
2018-07-27T09:45:48.519Z,2.50
2018-07-27T09:48:18.058Z,2.90
2018-07-27T09:50:47.678Z,2.45
2018-07-27T09:53:17.346Z,2.60
2018-07-27T09:55:46.907Z,3.00
2018-07-27T09:58:16.791Z,2.42
2018-07-27T10:00:51.733Z,2.47
2018-07-27T10:03:21.235Z,2.60
2018-07-27T10:05:50.877Z,2.70
2018-07-27T10:08:20.598Z,2.72
2018-07-27T10:10:50.849Z,3.08
2018-07-27T10:13:20.361Z,2.75
2018-07-27T10:15:49.877Z,2.42
2018-07-27T10:18:19.911Z,2.80
2018-07-27T10:20:49.617Z,2.77
2018-07-27T10:23:19.226Z,2.80
2018-07-27T10:25:48.694Z,2.62
2018-07-27T10:28:18.191Z,2.35
2018-07-27T10:30:47.944Z,2.58
2018-07-27T10:33:17.366Z,2.62
2018-07-27T10:35:46.836Z,2.87
2018-07-27T10:38:16.390Z,2.37
2018-07-27T10:40:45.944Z,2.83
2018-07-27T10:43:15.413Z,2.52
2018-07-27T10:45:44.908Z,2.60
2018-07-27T10:48:14.331Z,2.62
2018-07-27T10:50:43.969Z,2.42
2018-07-27T10:53:13.499Z,2.55
2018-07-27T10:55:42.998Z,2.80
2018-07-27T10:58:12.524Z,2.47
2018-07-27T11:00:42.072Z,2.37
2018-07-27T11:03:11.513Z,2.37
2018-07-27T11:05:40.978Z,2.30
2018-07-27T11:08:10.516Z,2.33
2018-07-27T11:10:40.077Z,2.58
2018-07-27T11:13:09.484Z,2.72
2018-07-27T11:15:39.112Z,2.80
2018-07-27T11:18:08.691Z,2.40
2018-07-27T11:20:38.168Z,2.52
2018-07-27T11:23:07.619Z,2.27
2018-07-27T11:25:37.182Z,2.62
2018-07-27T11:28:06.760Z,2.30
2018-07-27T11:30:36.193Z,2.55
2018-07-27T11:33:05.734Z,2.52
2018-07-27T11:35:35.272Z,2.58
2018-07-27T11:38:04.693Z,2.35
2018-07-27T11:40:34.207Z,2.35
2018-07-27T11:43:03.780Z,2.27
2018-07-27T11:45:33.197Z,2.30
2018-07-27T11:48:02.855Z,2.60
2018-07-27T11:50:32.291Z,2.55
2018-07-27T11:53:01.911Z,2.12
2018-07-27T11:55:30.942Z,2.22
2018-07-27T11:58:00.059Z,2.40
2018-07-27T12:00:29.330Z,2.30
2018-07-27T12:02:58.412Z,2.47
2018-07-27T12:05:27.412Z,2.40
2018-07-27T12:07:56.305Z,2.40
2018-07-27T12:10:25.456Z,2.58
2018-07-27T12:12:54.361Z,2.40
2018-07-27T12:15:23.244Z,2.60
2018-07-27T12:17:52.511Z,2.37
2018-07-27T12:20:21.623Z,2.10
2018-07-27T12:22:50.619Z,2.37
2018-07-27T12:25:19.523Z,2.52
2018-07-27T12:27:48.394Z,2.30
2018-07-27T12:30:17.440Z,2.22
2018-07-27T12:32:46.447Z,2.25
2018-07-27T12:35:15.628Z,2.35
2018-07-27T12:37:44.912Z,2.47
2018-07-27T12:40:14.014Z,3.20
2018-07-27T12:42:42.931Z,3.00
2018-07-27T12:45:12.070Z,2.60
2018-07-27T12:47:41.490Z,2.33
2018-07-27T12:50:11.340Z,2.60
2018-07-27T12:52:40.848Z,2.30
2018-07-27T12:55:10.241Z,2.37
2018-07-27T12:57:39.712Z,2.50
2018-07-27T13:00:09.933Z,2.37
2018-07-27T13:02:39.846Z,2.60
2018-07-27T13:05:09.619Z,2.62
2018-07-27T13:07:39.258Z,4.25
2018-07-27T13:10:08.845Z,3.87
2018-07-27T13:12:38.897Z,3.22
2018-07-27T13:15:09.308Z,3.12
2018-07-27T13:17:38.870Z,3.02
2018-07-27T13:20:08.627Z,2.98
2018-07-27T13:22:38.264Z,2.50
2018-07-27T13:25:07.822Z,2.60
2018-07-27T13:27:37.403Z,2.50
2018-07-27T13:30:07.210Z,2.30
2018-07-27T13:32:36.650Z,2.58
2018-07-27T13:37:36.740Z,2.52
2018-07-27T13:40:06.507Z,2.50
2018-07-27T13:42:37.014Z,2.55
2018-07-27T13:45:06.487Z,2.25
2018-07-27T13:47:36.125Z,2.70
2018-07-27T13:50:05.711Z,2.75
2018-07-27T13:52:35.355Z,2.22
2018-07-27T13:55:05.089Z,2.60
2018-07-27T13:57:34.606Z,2.15
2018-07-27T14:00:04.392Z,2.37
2018-07-27T14:02:34.172Z,2.70
2018-07-27T14:05:03.952Z,2.50
2018-07-27T14:07:33.640Z,2.62
2018-07-27T14:10:03.111Z,2.77
2018-07-27T14:12:32.997Z,2.70
2018-07-27T14:15:02.959Z,2.52
2018-07-27T14:17:32.556Z,2.50
2018-07-27T14:20:02.069Z,2.90
2018-07-27T14:22:31.774Z,2.60
2018-07-27T14:25:01.420Z,2.60
2018-07-27T14:27:30.952Z,3.67
2018-07-27T14:30:00.438Z,4.37
2018-07-27T14:32:30.047Z,4.28
2018-07-27T14:34:59.608Z,3.90
2018-07-27T14:37:29.204Z,3.05
2018-07-27T14:39:58.818Z,2.80
2018-07-27T14:42:28.390Z,3.08
2018-07-27T14:44:57.801Z,2.58
2018-07-27T14:47:27.243Z,2.98
2018-07-27T14:49:56.772Z,2.87
2018-07-27T14:52:26.627Z,2.62
2018-07-27T14:54:55.979Z,2.60
2018-07-27T14:57:25.433Z,2.98
2018-07-27T14:59:54.845Z,2.85
2018-07-27T15:02:24.534Z,3.00
2018-07-27T15:04:54.075Z,2.60
2018-07-27T15:07:23.805Z,2.70
2018-07-27T15:09:53.359Z,2.90
2018-07-27T15:12:22.663Z,3.08
2018-07-27T15:14:52.182Z,3.12
2018-07-27T15:17:21.779Z,3.08
2018-07-27T15:19:51.361Z,3.15
2018-07-27T15:22:20.815Z,2.50
2018-07-27T15:24:50.607Z,2.70
2018-07-27T15:27:20.155Z,3.00
2018-07-27T15:29:49.819Z,2.50
2018-07-27T15:32:19.504Z,2.77
2018-07-27T15:34:48.949Z,2.90
2018-07-27T15:37:18.558Z,3.52
2018-07-27T15:39:48.201Z,3.10
2018-07-27T15:42:17.657Z,2.47
2018-07-27T15:44:47.242Z,2.40
2018-07-27T15:47:16.698Z,2.42
2018-07-27T15:49:46.127Z,2.02
2018-07-27T15:52:15.537Z,2.25
2018-07-27T15:54:44.923Z,2.33
2018-07-27T15:57:14.570Z,2.30
2018-07-27T15:59:43.981Z,2.02
2018-07-27T16:02:13.713Z,1.85
2018-07-27T16:04:43.355Z,2.40
2018-07-27T16:07:12.818Z,2.30
2018-07-27T16:09:42.248Z,2.40
2018-07-27T16:12:11.776Z,2.17
2018-07-27T16:14:41.176Z,3.02
2018-07-27T16:17:10.908Z,2.85
2018-07-27T16:19:40.218Z,2.70
2018-07-27T16:22:09.554Z,2.77
2018-07-27T16:24:39.118Z,2.42
2018-07-27T16:27:08.502Z,2.40
2018-07-27T16:29:37.976Z,2.58
2018-07-27T16:32:07.879Z,2.70
2018-07-27T16:34:37.253Z,2.72
2018-07-27T16:37:06.700Z,2.60
2018-07-27T16:39:36.282Z,2.75
2018-07-27T16:42:06.180Z,2.85
2018-07-27T16:44:35.822Z,2.75
2018-07-27T16:47:05.512Z,2.90
2018-07-27T16:49:35.032Z,2.83
2018-07-27T16:52:04.508Z,2.90
2018-07-27T16:54:33.800Z,3.33
2018-07-27T16:57:03.288Z,2.80
2018-07-27T16:59:32.716Z,2.65
2018-07-27T17:02:02.238Z,2.95
2018-07-27T17:04:31.706Z,2.80
2018-07-27T17:07:01.136Z,3.00
2018-07-27T17:09:30.731Z,2.55
2018-07-27T17:12:00.257Z,2.72
2018-07-27T17:14:29.783Z,2.77
2018-07-27T17:16:59.267Z,2.95
2018-07-27T17:19:28.685Z,2.90
2018-07-27T17:21:58.155Z,3.55
2018-07-27T17:24:27.714Z,3.25
2018-07-27T17:26:57.248Z,2.87
2018-07-27T17:29:26.668Z,3.27
2018-07-27T17:31:56.216Z,2.85
2018-07-27T17:34:25.660Z,3.55
2018-07-27T17:36:55.107Z,2.98
2018-07-27T17:39:24.588Z,3.08
2018-07-27T17:41:54.194Z,3.35
2018-07-27T17:44:23.572Z,3.30
2018-07-27T17:46:53.183Z,3.35
2018-07-27T17:49:22.631Z,3.02
2018-07-27T17:51:52.051Z,3.10
2018-07-27T17:54:21.551Z,3.20
2018-07-27T17:56:51.103Z,3.87
2018-07-27T17:59:20.439Z,3.77
2018-07-27T18:01:49.919Z,3.50
2018-07-27T18:04:19.479Z,3.30
2018-07-27T18:06:48.941Z,3.15
2018-07-27T18:09:18.723Z,3.05
2018-07-27T18:11:48.116Z,3.40
2018-07-27T18:14:17.626Z,3.83
2018-07-27T18:16:47.142Z,3.35
2018-07-27T18:19:16.692Z,3.42
2018-07-27T18:21:46.409Z,2.98
2018-07-27T18:24:15.893Z,3.37
2018-07-27T18:26:45.182Z,2.95
2018-07-27T18:29:14.804Z,3.12
2018-07-27T18:31:44.333Z,3.30
2018-07-27T18:34:13.916Z,3.27
2018-07-27T18:36:43.627Z,3.15
2018-07-27T18:39:13.571Z,3.47
2018-07-27T18:41:42.992Z,5.08
2018-07-27T18:44:12.859Z,5.67
2018-07-27T18:46:42.303Z,6.25
2018-07-27T18:49:11.685Z,6.30
2018-07-27T18:51:41.457Z,6.20
2018-07-27T18:54:10.839Z,7.37
2018-07-27T18:56:40.430Z,9.05
2018-07-27T18:59:09.872Z,11.00
2018-07-27T19:01:39.430Z,10.78
2018-07-27T19:04:08.820Z,16.35
2018-07-27T19:06:38.257Z,19.35
2018-07-27T19:09:10.697Z,19.40
2018-07-27T19:11:40.238Z,19.35
2018-07-27T19:14:10.097Z,19.80
2018-07-27T19:16:39.601Z,19.82
2018-07-27T19:19:09.324Z,19.52
2018-07-27T19:21:38.650Z,19.87
2018-07-27T19:24:08.451Z,18.40
2018-07-27T19:26:37.955Z,18.55
2018-07-27T19:29:07.555Z,18.15
2018-07-27T19:31:37.171Z,15.78
2018-07-27T19:34:06.797Z,16.40
2018-07-27T19:36:36.270Z,15.88
2018-07-27T19:39:07.919Z,16.30
2018-07-27T19:41:37.419Z,13.93
2018-07-27T19:44:07.225Z,13.67
2018-07-27T19:46:36.715Z,11.77
2018-07-27T19:49:06.279Z,10.13
2018-07-27T19:51:35.855Z,8.40
2018-07-27T19:54:05.597Z,7.47
2018-07-27T19:56:35.257Z,6.70
2018-07-27T19:59:04.750Z,6.77
2018-07-27T20:01:34.373Z,6.10
2018-07-27T20:04:04.103Z,6.17
2018-07-27T20:06:38.253Z,5.47
2018-07-27T20:09:09.193Z,5.90
2018-07-27T20:11:38.930Z,5.70
2018-07-27T20:14:08.714Z,5.70
2018-07-27T20:16:38.145Z,5.23
2018-07-27T20:19:07.702Z,4.73
2018-07-27T20:21:37.325Z,4.63
2018-07-27T20:24:06.974Z,4.73
2018-07-27T20:26:36.446Z,4.80
2018-07-27T20:29:06.071Z,4.87
2018-07-27T20:31:36.620Z,4.70
2018-07-27T20:34:07.300Z,4.53
2018-07-27T20:36:36.872Z,4.10
2018-07-27T20:39:09.809Z,4.23
2018-07-27T20:41:39.486Z,4.40
2018-07-27T20:44:09.105Z,4.33
2018-07-27T20:46:38.610Z,4.70
2018-07-27T20:49:08.582Z,4.50
2018-07-27T20:51:38.239Z,4.50
2018-07-27T20:54:07.619Z,4.17
2018-07-27T20:56:37.079Z,4.63
2018-07-27T20:59:06.926Z,4.63
2018-07-27T21:01:36.480Z,5.33
2018-07-27T21:04:06.173Z,4.80
2018-07-27T21:06:35.720Z,5.07
2018-07-27T21:09:07.861Z,5.40
2018-07-27T21:11:37.396Z,6.13
2018-07-27T21:14:07.115Z,6.30
2018-07-27T21:16:37.471Z,6.30
2018-07-27T21:19:07.298Z,6.97
2018-07-27T21:21:36.935Z,6.90
2018-07-27T21:24:06.433Z,7.17
2018-07-27T21:26:36.051Z,6.93
2018-07-27T21:29:05.595Z,7.47
2018-07-27T21:31:34.988Z,7.00
2018-07-27T21:34:04.456Z,7.40
2018-07-27T21:36:33.884Z,6.73
2018-07-27T21:39:03.858Z,6.83
2018-07-27T21:41:33.272Z,6.43
2018-07-27T21:44:02.727Z,7.27
2018-07-27T21:46:32.073Z,7.10
2018-07-27T21:49:02.012Z,7.13
2018-07-27T21:51:31.565Z,7.13
2018-07-27T21:54:01.108Z,6.83
2018-07-27T21:56:31.315Z,7.30
2018-07-27T21:59:00.695Z,6.90
2018-07-27T22:01:30.193Z,6.97
2018-07-27T22:03:59.633Z,7.57
2018-07-27T22:06:29.115Z,7.20
2018-07-27T22:08:58.503Z,7.67
2018-07-27T22:11:27.900Z,8.00
2018-07-27T22:13:57.323Z,7.53
2018-07-27T22:16:26.890Z,7.30
2018-07-27T22:18:56.219Z,6.67
2018-07-27T22:21:25.706Z,6.90
2018-07-27T22:23:55.063Z,7.50
2018-07-27T22:26:24.496Z,7.30
2018-07-27T22:28:53.980Z,7.77
2018-07-27T22:31:23.606Z,7.63
2018-07-27T22:33:53.068Z,8.07
2018-07-27T22:36:22.392Z,7.23
2018-07-27T22:38:51.859Z,7.57
2018-07-27T22:41:21.281Z,7.13
2018-07-27T22:43:50.852Z,6.37
2018-07-27T22:46:20.623Z,6.55
2018-07-27T22:48:49.963Z,6.40
2018-07-27T22:51:19.424Z,6.50
2018-07-27T22:53:48.914Z,7.57
2018-07-27T22:56:18.294Z,7.13
2018-07-27T22:58:47.688Z,7.03
2018-07-27T23:01:17.072Z,7.30
2018-07-27T23:03:46.578Z,7.83
2018-07-27T23:06:16.094Z,8.27
2018-07-27T23:08:45.571Z,8.20
2018-07-27T23:11:15.144Z,7.50
2018-07-27T23:13:44.729Z,8.90
2018-07-27T23:16:14.199Z,7.77
2018-07-27T23:18:43.563Z,9.00
2018-07-27T23:21:13.145Z,8.97
2018-07-27T23:23:42.658Z,8.80
2018-07-27T23:26:12.172Z,8.60
2018-07-27T23:28:41.693Z,7.47
2018-07-27T23:31:11.197Z,8.80
2018-07-27T23:33:40.650Z,8.13
2018-07-27T23:36:10.220Z,8.23
2018-07-27T23:38:39.864Z,8.37
2018-07-27T23:41:09.475Z,9.17
2018-07-27T23:43:38.890Z,8.20
2018-07-27T23:46:08.450Z,8.40
2018-07-27T23:48:37.885Z,8.17
2018-07-27T23:51:07.641Z,7.80
2018-07-27T23:53:37.337Z,7.73
2018-07-27T23:56:06.776Z,7.87
2018-07-27T23:58:36.380Z,7.20
